createdAt,value
2019-01-23T00:00:40.434Z,31.37
2019-01-23T00:01:47.509Z,33.13
2019-01-23T00:02:51.805Z,31.77
2019-01-23T00:03:56.164Z,34.18
2019-01-23T00:05:00.426Z,33.02
2019-01-23T00:06:04.954Z,32.53
2019-01-23T00:07:09.400Z,33.55
2019-01-23T00:08:13.666Z,33.42
2019-01-23T00:09:17.941Z,32.83
2019-01-23T00:10:22.297Z,33.58
2019-01-23T00:11:26.569Z,33.95
2019-01-23T00:12:30.861Z,32.98
2019-01-23T00:13:35.130Z,33.42
2019-01-23T00:14:39.401Z,32.28
2019-01-23T00:15:43.742Z,33.88
2019-01-23T00:16:48.082Z,34.08
2019-01-23T00:17:52.366Z,34.08
2019-01-23T00:18:56.630Z,35.23
2019-01-23T00:20:00.907Z,34.33
2019-01-23T00:21:05.245Z,34.10
2019-01-23T00:22:09.674Z,33.23
2019-01-23T00:23:13.955Z,33.40
2019-01-23T00:24:18.282Z,35.50
2019-01-23T00:25:22.650Z,33.05
2019-01-23T00:26:26.941Z,34.90
2019-01-23T00:27:31.222Z,34.67
2019-01-23T00:28:35.485Z,34.88
2019-01-23T00:29:39.763Z,35.50
2019-01-23T00:30:44.042Z,36.20
2019-01-23T00:31:48.338Z,34.90
2019-01-23T00:32:52.632Z,33.35
2019-01-23T00:33:56.907Z,33.70
2019-01-23T00:35:01.190Z,35.38
2019-01-23T00:36:05.577Z,35.35
2019-01-23T00:37:09.894Z,34.33
2019-01-23T00:38:14.174Z,35.88
2019-01-23T00:39:18.558Z,35.08
2019-01-23T00:40:22.902Z,34.95
2019-01-23T00:41:27.170Z,35.75
2019-01-23T00:42:31.591Z,35.75
2019-01-23T00:43:35.871Z,34.35
2019-01-23T00:44:40.137Z,35.10
2019-01-23T00:45:44.479Z,35.48
2019-01-23T00:46:48.831Z,36.35
2019-01-23T00:47:53.107Z,34.20
2019-01-23T00:48:57.371Z,37.00
2019-01-23T00:50:01.655Z,35.48
2019-01-23T00:51:05.961Z,37.88
2019-01-23T00:52:10.247Z,37.85
2019-01-23T00:53:14.527Z,37.65
2019-01-23T00:54:18.891Z,37.17
2019-01-23T00:55:23.176Z,37.95
2019-01-23T00:56:27.438Z,38.40
2019-01-23T00:57:31.728Z,38.10
2019-01-23T00:58:35.998Z,37.08
2019-01-23T00:59:40.522Z,37.48
2019-01-23T01:00:44.794Z,39.92
2019-01-23T01:01:49.142Z,36.75
2019-01-23T01:02:53.764Z,38.15
2019-01-23T01:03:58.046Z,36.40
2019-01-23T01:05:02.382Z,35.83
2019-01-23T01:06:06.730Z,39.03
2019-01-23T01:07:11.099Z,39.70
2019-01-23T01:08:15.366Z,37.65
2019-01-23T01:09:19.722Z,37.90
2019-01-23T01:10:24.066Z,40.28
2019-01-23T01:11:28.346Z,40.17
2019-01-23T01:12:32.610Z,37.80
2019-01-23T01:13:36.934Z,39.13
2019-01-23T01:14:41.221Z,39.27
2019-01-23T01:15:45.634Z,39.13
2019-01-23T01:16:50.055Z,39.53
2019-01-23T01:17:54.419Z,39.42
2019-01-23T01:18:58.777Z,40.43
2019-01-23T01:20:03.636Z,39.63
2019-01-23T01:21:07.978Z,38.63
2019-01-23T01:22:12.337Z,38.90
2019-01-23T01:23:16.595Z,38.75
2019-01-23T01:24:20.875Z,42.10
2019-01-23T01:25:25.226Z,39.78
2019-01-23T01:26:29.505Z,41.15
2019-01-23T01:27:33.793Z,41.33
2019-01-23T01:28:38.109Z,39.98
2019-01-23T01:29:42.386Z,42.08
2019-01-23T01:30:46.655Z,39.78
2019-01-23T01:31:50.942Z,40.25
2019-01-23T01:32:55.206Z,39.10
2019-01-23T01:33:59.474Z,41.35
2019-01-23T01:35:04.246Z,42.43
2019-01-23T01:36:08.517Z,41.63
2019-01-23T01:37:12.795Z,41.73
2019-01-23T01:38:17.059Z,41.45
2019-01-23T01:39:21.402Z,41.18
2019-01-23T01:40:25.749Z,42.13
2019-01-23T01:41:30.029Z,42.20
2019-01-23T01:42:34.294Z,39.92
2019-01-23T01:43:38.562Z,41.28
2019-01-23T01:44:42.830Z,40.23
2019-01-23T01:45:47.102Z,42.17
2019-01-23T01:46:51.377Z,44.33
2019-01-23T01:47:55.738Z,41.95
2019-01-23T01:48:59.998Z,42.78
2019-01-23T01:50:06.545Z,41.35
2019-01-23T01:51:10.879Z,40.80
2019-01-23T01:52:15.241Z,41.75
2019-01-23T01:53:19.509Z,42.25
2019-01-23T01:54:23.771Z,42.10
2019-01-23T01:55:28.047Z,43.28
2019-01-23T01:56:32.332Z,42.15
2019-01-23T01:57:36.674Z,43.58
2019-01-23T01:58:40.942Z,42.17
2019-01-23T01:59:45.222Z,42.58
2019-01-23T02:00:49.491Z,41.85
2019-01-23T02:01:53.754Z,42.98
2019-01-23T02:02:58.086Z,43.00
2019-01-23T02:04:02.370Z,42.85
2019-01-23T02:05:07.318Z,43.52
2019-01-23T02:06:11.738Z,42.25
2019-01-23T02:07:16.029Z,44.42
2019-01-23T02:08:20.294Z,42.83
2019-01-23T02:09:24.562Z,44.70
2019-01-23T02:10:28.963Z,44.63
2019-01-23T02:11:33.298Z,41.73
2019-01-23T02:12:37.562Z,42.45
2019-01-23T02:13:41.854Z,43.10
2019-01-23T02:14:46.129Z,42.50
2019-01-23T02:15:50.429Z,44.67
2019-01-23T02:16:54.697Z,42.67
2019-01-23T02:17:58.978Z,43.65
2019-01-23T02:19:03.335Z,44.40
2019-01-23T02:20:11.000Z,42.75
2019-01-23T02:21:15.274Z,43.68
2019-01-23T02:22:19.535Z,43.55
2019-01-23T02:23:23.793Z,41.92
2019-01-23T02:24:28.061Z,44.50
2019-01-23T02:25:32.565Z,43.78
2019-01-23T02:26:36.849Z,43.00
2019-01-23T02:27:41.866Z,44.00
2019-01-23T02:28:46.139Z,45.05
2019-01-23T02:29:50.405Z,44.35
2019-01-23T02:30:54.688Z,41.95
2019-01-23T02:31:58.970Z,45.92
2019-01-23T02:33:03.266Z,42.93
2019-01-23T02:34:07.511Z,44.48
2019-01-23T02:35:11.934Z,44.90
2019-01-23T02:36:16.230Z,44.58
2019-01-23T02:37:20.535Z,43.55
2019-01-23T02:38:24.805Z,44.45
2019-01-23T02:39:29.070Z,43.48
2019-01-23T02:40:33.346Z,45.40
2019-01-23T02:41:37.689Z,44.25
2019-01-23T02:42:42.030Z,44.05
2019-01-23T02:43:46.289Z,44.13
2019-01-23T02:44:50.567Z,43.90
2019-01-23T02:45:54.843Z,46.23
2019-01-23T02:46:59.134Z,44.03
2019-01-23T02:48:03.699Z,44.30
2019-01-23T02:49:08.065Z,43.73
2019-01-23T02:50:12.662Z,46.33
2019-01-23T02:51:16.941Z,44.80
2019-01-23T02:52:21.298Z,45.50
2019-01-23T02:53:25.594Z,44.15
2019-01-23T02:54:29.878Z,45.33
2019-01-23T02:55:34.217Z,45.17
2019-01-23T02:56:38.501Z,44.75
2019-01-23T02:57:42.854Z,47.38
2019-01-23T02:58:47.122Z,45.05
2019-01-23T02:59:51.486Z,45.90
2019-01-23T03:00:55.746Z,45.43
2019-01-23T03:02:00.036Z,47.30
2019-01-23T03:03:04.460Z,48.45
2019-01-23T03:04:08.738Z,46.08
2019-01-23T03:05:15.251Z,47.98
2019-01-23T03:06:19.601Z,45.70
2019-01-23T03:07:23.879Z,46.25
2019-01-23T03:08:28.173Z,46.77
2019-01-23T03:09:32.450Z,44.40
2019-01-23T03:10:36.730Z,45.75
2019-01-23T03:11:41.063Z,45.88
2019-01-23T03:12:45.376Z,44.40
2019-01-23T03:13:49.638Z,45.15
2019-01-23T03:14:53.999Z,44.95
2019-01-23T03:15:58.274Z,45.48
2019-01-23T03:17:02.535Z,48.60
2019-01-23T03:18:06.890Z,47.65
2019-01-23T03:19:11.238Z,46.00
2019-01-23T03:20:17.523Z,47.10
2019-01-23T03:21:22.467Z,47.10
2019-01-23T03:22:26.736Z,48.35
2019-01-23T03:23:31.021Z,47.60
2019-01-23T03:24:35.293Z,49.73
2019-01-23T03:25:39.578Z,48.30
2019-01-23T03:26:43.834Z,46.70
2019-01-23T03:27:48.181Z,47.55
2019-01-23T03:28:52.453Z,48.60
2019-01-23T03:29:56.751Z,47.73
2019-01-23T03:31:01.091Z,46.23
2019-01-23T03:32:05.520Z,47.88
2019-01-23T03:33:09.795Z,44.60
2019-01-23T03:34:14.070Z,46.98
2019-01-23T03:35:18.625Z,45.28
2019-01-23T03:36:22.898Z,47.45
2019-01-23T03:37:27.194Z,47.88
2019-01-23T03:38:31.474Z,47.00
2019-01-23T03:39:35.746Z,47.60
2019-01-23T03:40:40.021Z,48.68
2019-01-23T03:41:44.289Z,47.62
2019-01-23T03:42:48.650Z,47.95
2019-01-23T03:43:52.930Z,49.08
2019-01-23T03:44:57.201Z,49.27
2019-01-23T03:46:01.486Z,48.95
2019-01-23T03:47:05.752Z,51.73
2019-01-23T03:48:10.014Z,49.08
2019-01-23T03:49:14.322Z,50.43
2019-01-23T03:50:19.546Z,48.87
2019-01-23T03:51:23.814Z,50.73
2019-01-23T03:52:28.100Z,51.33
2019-01-23T03:53:32.397Z,48.42
2019-01-23T03:54:36.666Z,49.77
2019-01-23T03:55:41.082Z,49.50
2019-01-23T03:56:45.430Z,47.80
2019-01-23T03:57:49.770Z,50.43
2019-01-23T03:58:54.193Z,49.38
2019-01-23T03:59:58.820Z,48.42
2019-01-23T04:01:03.158Z,53.55
2019-01-23T04:02:07.450Z,48.50
2019-01-23T04:03:11.870Z,51.95
2019-01-23T04:04:16.207Z,50.48
2019-01-23T04:05:20.687Z,49.70
2019-01-23T04:06:24.949Z,50.20
2019-01-23T04:07:29.297Z,50.08
2019-01-23T04:08:33.582Z,52.38
2019-01-23T04:09:37.870Z,49.33
2019-01-23T04:10:42.154Z,50.83
2019-01-23T04:11:46.441Z,50.92
2019-01-23T04:12:51.195Z,50.70
2019-01-23T04:13:55.466Z,51.40
2019-01-23T04:14:59.738Z,50.65
2019-01-23T04:16:04.186Z,51.68
2019-01-23T04:17:08.460Z,47.17
2019-01-23T04:18:12.726Z,51.65
2019-01-23T04:19:17.011Z,49.65
2019-01-23T04:20:22.609Z,51.23
2019-01-23T04:21:26.880Z,50.38
2019-01-23T04:22:31.547Z,49.83
2019-01-23T04:23:35.851Z,51.08
2019-01-23T04:24:40.126Z,50.23
2019-01-23T04:25:47.562Z,50.80
2019-01-23T04:26:51.838Z,49.25
2019-01-23T04:27:56.107Z,51.83
2019-01-23T04:29:00.388Z,51.08
2019-01-23T04:30:06.483Z,50.80
2019-01-23T04:31:10.763Z,48.75
2019-01-23T04:32:15.025Z,51.80
2019-01-23T04:33:19.294Z,50.58
2019-01-23T04:34:23.574Z,50.43
2019-01-23T04:35:27.865Z,51.48
2019-01-23T04:36:32.138Z,53.08
2019-01-23T04:37:36.439Z,51.58
2019-01-23T04:38:40.714Z,50.80
2019-01-23T04:39:44.994Z,51.60
2019-01-23T04:40:49.272Z,52.20
2019-01-23T04:41:53.537Z,53.90
2019-01-23T04:42:57.813Z,50.40
2019-01-23T04:44:02.102Z,50.05
2019-01-23T04:45:08.186Z,53.55
2019-01-23T04:46:12.537Z,51.77
2019-01-23T04:47:16.845Z,52.55
2019-01-23T04:48:21.189Z,51.73
2019-01-23T04:49:25.500Z,49.73
2019-01-23T04:50:29.953Z,51.33
2019-01-23T04:51:44.821Z,51.92
2019-01-23T04:53:06.511Z,50.73
2019-01-23T04:54:14.528Z,50.40
2019-01-23T04:55:18.828Z,51.15
2019-01-23T04:56:23.106Z,50.52
2019-01-23T04:57:27.406Z,52.15
2019-01-23T04:58:31.679Z,52.83
2019-01-23T04:59:35.955Z,52.25
2019-01-23T05:00:40.242Z,52.60
2019-01-23T05:01:44.662Z,51.83
2019-01-23T05:02:50.420Z,52.53
2019-01-23T05:03:54.974Z,51.65
2019-01-23T05:04:59.254Z,53.33
2019-01-23T05:06:03.883Z,53.38
2019-01-23T05:07:08.151Z,52.53
2019-01-23T05:08:12.426Z,51.13
2019-01-23T05:09:16.697Z,51.02
2019-01-23T05:10:21.096Z,50.28
2019-01-23T05:11:25.434Z,51.20
2019-01-23T05:12:29.809Z,50.33
2019-01-23T05:13:34.074Z,51.80
2019-01-23T05:14:38.435Z,51.35
2019-01-23T05:15:42.726Z,49.63
2019-01-23T05:16:47.002Z,50.03
2019-01-23T05:17:51.349Z,50.45
2019-01-23T05:18:55.634Z,53.25
2019-01-23T05:19:59.891Z,48.75
2019-01-23T05:21:04.334Z,50.23
2019-01-23T05:22:08.614Z,52.25
2019-01-23T05:23:12.894Z,53.13
2019-01-23T05:24:17.238Z,50.52
2019-01-23T05:25:21.503Z,52.58
2019-01-23T05:26:25.783Z,50.52
2019-01-23T05:27:30.042Z,51.10
2019-01-23T05:28:34.319Z,49.98
2019-01-23T05:29:38.658Z,51.02
2019-01-23T05:30:42.938Z,52.48
2019-01-23T05:31:47.243Z,52.85
2019-01-23T05:32:51.521Z,53.52
2019-01-23T05:33:55.794Z,50.75
2019-01-23T05:35:00.091Z,51.40
2019-01-23T05:36:04.702Z,51.88
2019-01-23T05:37:09.041Z,50.73
2019-01-23T05:38:13.336Z,51.35
2019-01-23T05:39:17.602Z,50.88
2019-01-23T05:40:22.041Z,52.67
2019-01-23T05:41:26.339Z,48.63
2019-01-23T05:42:30.610Z,52.83
2019-01-23T05:43:34.886Z,50.33
2019-01-23T05:44:39.310Z,51.53
2019-01-23T05:45:43.573Z,50.58
2019-01-23T05:46:47.862Z,51.90
2019-01-23T05:47:52.184Z,49.18
2019-01-23T05:48:56.489Z,49.73
2019-01-23T05:50:01.001Z,52.20
2019-01-23T05:51:05.362Z,47.70
2019-01-23T05:52:09.716Z,49.35
2019-01-23T05:53:13.985Z,49.18
2019-01-23T05:54:18.262Z,50.03
2019-01-23T05:55:22.537Z,48.42
2019-01-23T05:56:26.886Z,51.65
2019-01-23T05:57:31.190Z,50.35
2019-01-23T05:58:35.497Z,49.63
2019-01-23T05:59:41.642Z,48.10
2019-01-23T06:00:45.931Z,48.75
2019-01-23T06:01:50.210Z,48.90
2019-01-23T06:02:54.554Z,50.25
2019-01-23T06:03:58.872Z,50.90
2019-01-23T06:05:03.209Z,50.28
2019-01-23T06:06:07.626Z,48.85
2019-01-23T06:07:11.908Z,50.65
2019-01-23T06:08:16.168Z,51.85
2019-01-23T06:09:20.437Z,52.25
2019-01-23T06:10:24.722Z,50.65
2019-01-23T06:11:29.056Z,50.05
2019-01-23T06:12:33.335Z,51.35
2019-01-23T06:13:37.669Z,49.77
2019-01-23T06:14:41.994Z,49.90
2019-01-23T06:15:46.267Z,51.20
2019-01-23T06:16:50.538Z,50.48
2019-01-23T06:17:54.874Z,50.48
2019-01-23T06:18:59.330Z,49.08
2019-01-23T06:20:04.702Z,51.15
2019-01-23T06:21:10.982Z,50.45
2019-01-23T06:22:15.257Z,53.02
2019-01-23T06:23:19.746Z,48.73
2019-01-23T06:24:24.006Z,50.60
2019-01-23T06:25:28.284Z,48.35
2019-01-23T06:26:32.542Z,51.42
2019-01-23T06:27:36.834Z,51.65
2019-01-23T06:28:41.211Z,50.75
2019-01-23T06:29:46.170Z,50.65
2019-01-23T06:30:50.442Z,49.27
2019-01-23T06:31:54.751Z,50.30
2019-01-23T06:32:59.071Z,49.42
2019-01-23T06:34:03.342Z,48.17
2019-01-23T06:35:07.774Z,50.52
2019-01-23T06:36:12.050Z,50.92
2019-01-23T06:37:16.330Z,50.00
2019-01-23T06:38:20.622Z,50.52
2019-01-23T06:39:24.899Z,49.25
2019-01-23T06:40:29.174Z,50.98
2019-01-23T06:41:33.527Z,50.17
2019-01-23T06:42:37.881Z,51.55
2019-01-23T06:43:42.242Z,48.73
2019-01-23T06:44:46.522Z,50.88
2019-01-23T06:45:50.817Z,48.55
2019-01-23T06:46:55.131Z,48.65
2019-01-23T06:47:59.391Z,47.70
2019-01-23T06:49:03.773Z,48.90
2019-01-23T06:50:10.981Z,50.15
2019-01-23T06:51:15.258Z,48.73
2019-01-23T06:52:19.541Z,49.90
2019-01-23T06:53:23.909Z,48.52
2019-01-23T06:54:28.191Z,48.42
2019-01-23T06:55:32.809Z,48.55
2019-01-23T06:56:37.074Z,50.08
2019-01-23T06:57:41.434Z,50.38
2019-01-23T06:58:45.715Z,50.60
2019-01-23T06:59:49.982Z,51.33
2019-01-23T07:00:54.299Z,49.50
2019-01-23T07:01:58.702Z,48.17
2019-01-23T07:03:03.049Z,48.95
2019-01-23T07:04:07.334Z,50.00
2019-01-23T07:05:11.938Z,48.55
2019-01-23T07:06:16.202Z,48.70
2019-01-23T07:07:20.469Z,50.38
2019-01-23T07:08:24.751Z,50.78
2019-01-23T07:09:29.038Z,52.48
2019-01-23T07:10:33.489Z,50.78
2019-01-23T07:11:37.810Z,50.65
2019-01-23T07:12:42.074Z,48.78
2019-01-23T07:13:46.370Z,47.62
2019-01-23T07:14:50.649Z,47.75
2019-01-23T07:15:54.918Z,48.08
2019-01-23T07:16:59.194Z,46.92
2019-01-23T07:18:03.471Z,48.68
2019-01-23T07:19:07.758Z,49.73
2019-01-23T07:20:15.115Z,48.17
2019-01-23T07:21:19.378Z,48.63
2019-01-23T07:22:23.663Z,49.15
2019-01-23T07:23:27.956Z,50.55
2019-01-23T07:24:32.324Z,48.55
2019-01-23T07:25:36.646Z,48.00
2019-01-23T07:26:40.918Z,48.20
2019-01-23T07:27:45.210Z,48.20
2019-01-23T07:28:49.527Z,47.60
2019-01-23T07:29:53.818Z,50.75
2019-01-23T07:30:58.089Z,47.38
2019-01-23T07:32:02.510Z,46.50
2019-01-23T07:33:06.858Z,46.50
2019-01-23T07:34:11.141Z,48.45
2019-01-23T07:35:15.972Z,46.83
2019-01-23T07:36:20.234Z,48.58
2019-01-23T07:37:24.591Z,47.45
2019-01-23T07:38:28.868Z,47.53
2019-01-23T07:39:33.145Z,45.28
2019-01-23T07:40:37.442Z,45.90
2019-01-23T07:41:41.729Z,47.48
2019-01-23T07:42:46.008Z,47.25
2019-01-23T07:43:50.273Z,48.13
2019-01-23T07:44:54.550Z,44.13
2019-01-23T07:45:58.839Z,45.63
2019-01-23T07:47:03.113Z,45.12
2019-01-23T07:48:07.538Z,46.35
2019-01-23T07:49:11.816Z,45.90
2019-01-23T07:50:16.502Z,48.63
2019-01-23T07:51:20.779Z,46.33
2019-01-23T07:52:25.061Z,44.83
2019-01-23T07:53:29.586Z,46.95
2019-01-23T07:54:33.853Z,48.92
2019-01-23T07:55:38.173Z,50.38
2019-01-23T07:56:42.445Z,49.67
2019-01-23T07:57:46.710Z,46.85
2019-01-23T07:58:51.054Z,44.50
2019-01-23T07:59:55.320Z,45.15
2019-01-23T08:00:59.606Z,44.60
2019-01-23T08:02:03.948Z,44.58
2019-01-23T08:03:08.210Z,45.10
2019-01-23T08:04:12.482Z,42.15
2019-01-23T08:05:19.643Z,44.65
2019-01-23T08:06:24.067Z,43.42
2019-01-23T08:07:28.342Z,43.13
2019-01-23T08:08:32.605Z,43.75
2019-01-23T08:09:37.617Z,43.38
2019-01-23T08:10:42.651Z,42.98
2019-01-23T08:11:46.920Z,41.35
2019-01-23T08:12:51.374Z,42.23
2019-01-23T08:13:55.729Z,43.42
2019-01-23T08:15:00.031Z,42.17
2019-01-23T08:16:04.478Z,41.80
2019-01-23T08:17:08.757Z,43.20
2019-01-23T08:18:13.091Z,42.43
2019-01-23T08:19:17.598Z,42.53
2019-01-23T08:20:22.320Z,42.65
2019-01-23T08:21:26.603Z,41.28
2019-01-23T08:22:30.870Z,42.38
2019-01-23T08:23:35.138Z,42.98
2019-01-23T08:24:39.405Z,43.38
2019-01-23T08:25:43.972Z,42.65
2019-01-23T08:26:48.310Z,40.92
2019-01-23T08:27:52.738Z,39.92
2019-01-23T08:28:57.021Z,40.85
2019-01-23T08:30:01.310Z,40.35
2019-01-23T08:31:05.675Z,40.83
2019-01-23T08:32:10.115Z,41.28
2019-01-23T08:33:14.400Z,42.53
2019-01-23T08:34:18.675Z,39.13
2019-01-23T08:35:23.418Z,41.83
2019-01-23T08:36:27.710Z,42.25
2019-01-23T08:37:31.996Z,39.35
2019-01-23T08:38:36.382Z,38.58
2019-01-23T08:39:40.658Z,40.20
2019-01-23T08:40:44.934Z,39.75
2019-01-23T08:41:49.225Z,40.80
2019-01-23T08:42:53.577Z,39.30
2019-01-23T08:43:57.867Z,39.58
2019-01-23T08:45:02.149Z,39.73
2019-01-23T08:46:06.499Z,39.55
2019-01-23T08:47:10.798Z,38.58
2019-01-23T08:48:15.154Z,37.28
2019-01-23T08:49:19.506Z,40.23
2019-01-23T08:50:26.650Z,39.48
2019-01-23T08:51:31.013Z,39.13
2019-01-23T08:52:35.386Z,37.85
2019-01-23T08:53:39.686Z,38.00
2019-01-23T08:54:43.963Z,38.85
2019-01-23T08:55:53.567Z,38.42
2019-01-23T08:56:54.583Z,38.55
2019-01-23T08:57:58.877Z,37.90
2019-01-23T08:59:03.162Z,38.08
2019-01-23T09:00:07.907Z,38.63
2019-01-23T09:01:12.186Z,38.20
2019-01-23T09:02:16.633Z,37.93
2019-01-23T09:03:20.989Z,37.85
2019-01-23T09:04:25.350Z,36.23
2019-01-23T09:05:29.780Z,39.13
2019-01-23T09:06:34.054Z,37.73
2019-01-23T09:07:38.423Z,38.25
2019-01-23T09:08:42.781Z,38.45
2019-01-23T09:09:47.066Z,37.83
2019-01-23T09:10:51.354Z,39.63
2019-01-23T09:11:55.710Z,37.93
2019-01-23T09:13:00.007Z,39.67
2019-01-23T09:14:04.536Z,39.45
2019-01-23T09:15:10.065Z,39.38
2019-01-23T09:16:14.489Z,37.88
2019-01-23T09:17:18.882Z,40.58
2019-01-23T09:18:23.171Z,37.67
2019-01-23T09:19:27.449Z,38.13
2019-01-23T09:20:31.805Z,39.05
2019-01-23T09:21:36.087Z,40.25
2019-01-23T09:22:40.366Z,41.18
2019-01-23T09:23:44.651Z,41.20
2019-01-23T09:24:48.934Z,40.08
2019-01-23T09:25:53.222Z,40.70
2019-01-23T09:26:57.569Z,44.30
2019-01-23T09:28:01.872Z,40.88
2019-01-23T09:29:06.222Z,38.35
2019-01-23T09:30:14.417Z,39.65
2019-01-23T09:31:43.853Z,38.33
2019-01-23T09:33:23.920Z,40.08
2019-01-23T09:35:05.291Z,38.95
2019-01-23T09:36:49.222Z,34.65
2019-01-23T09:38:19.862Z,36.53
2019-01-23T09:39:59.721Z,38.53
2019-01-23T09:41:22.002Z,39.42
2019-01-23T09:43:19.566Z,38.58
2019-01-23T09:44:35.545Z,37.50
2019-01-23T09:46:23.131Z,40.25
2019-01-23T09:47:39.562Z,39.60
2019-01-23T09:49:21.362Z,40.58
2019-01-23T09:51:05.351Z,41.37
2019-01-23T09:52:41.265Z,39.18
2019-01-23T09:53:58.103Z,41.23
2019-01-23T09:55:02.491Z,40.88
2019-01-23T09:56:06.882Z,41.95
2019-01-23T09:57:11.167Z,41.70
2019-01-23T09:58:15.465Z,40.38
2019-01-23T09:59:19.751Z,42.27
2019-01-23T10:00:26.750Z,43.02
2019-01-23T10:01:31.030Z,40.73
2019-01-23T10:02:35.321Z,39.38
2019-01-23T10:03:39.594Z,41.55
2019-01-23T10:04:43.897Z,41.48
2019-01-23T10:05:48.182Z,42.90
2019-01-23T10:06:52.484Z,41.80
2019-01-23T10:07:56.766Z,42.35
2019-01-23T10:09:01.137Z,42.05
2019-01-23T10:10:06.869Z,41.30
2019-01-23T10:11:11.154Z,41.68
2019-01-23T10:12:15.688Z,42.13
2019-01-23T10:13:20.098Z,39.35
2019-01-23T10:14:24.376Z,41.02
2019-01-23T10:15:46.989Z,44.10
2019-01-23T10:16:51.241Z,41.68
2019-01-23T10:17:55.515Z,41.68
2019-01-23T10:18:59.791Z,41.45
2019-01-23T10:20:04.444Z,41.08
2019-01-23T10:21:08.693Z,41.13
2019-01-23T10:22:13.039Z,41.25
2019-01-23T10:23:17.325Z,42.65
2019-01-23T10:24:21.598Z,41.77
2019-01-23T10:25:25.858Z,40.55
2019-01-23T10:26:30.187Z,42.55
2019-01-23T10:27:35.209Z,42.43
2019-01-23T10:28:39.465Z,41.98
2019-01-23T10:29:43.758Z,40.55
2019-01-23T10:30:48.028Z,43.10
2019-01-23T10:31:52.328Z,42.50
2019-01-23T10:32:56.661Z,41.33
2019-01-23T10:34:00.926Z,43.13
2019-01-23T10:35:07.053Z,43.55
2019-01-23T10:36:11.466Z,41.77
2019-01-23T10:37:19.494Z,39.88
2019-01-23T10:38:21.707Z,39.42
2019-01-23T10:39:26.057Z,40.75
2019-01-23T10:40:30.331Z,39.55
2019-01-23T10:41:34.685Z,41.98
2019-01-23T10:42:38.945Z,41.20
2019-01-23T10:43:43.283Z,40.25
2019-01-23T10:44:47.578Z,43.17
2019-01-23T10:45:51.849Z,42.78
2019-01-23T10:46:56.114Z,44.18
2019-01-23T10:48:00.462Z,42.67
2019-01-23T10:49:06.162Z,42.30
2019-01-23T10:50:12.242Z,41.45
2019-01-23T10:51:16.507Z,41.68
2019-01-23T10:52:20.850Z,39.98
2019-01-23T10:53:25.214Z,42.40
2019-01-23T10:54:29.497Z,41.85
2019-01-23T10:55:33.850Z,41.55
2019-01-23T10:56:38.198Z,41.18
2019-01-23T10:57:42.717Z,43.05
2019-01-23T10:58:46.983Z,40.95
2019-01-23T10:59:51.249Z,40.67
2019-01-23T11:00:55.542Z,43.17
2019-01-23T11:01:59.950Z,40.88
2019-01-23T11:03:10.012Z,42.25
2019-01-23T11:04:10.536Z,40.40
2019-01-23T11:05:17.623Z,42.55
2019-01-23T11:06:21.979Z,40.70
2019-01-23T11:07:26.254Z,40.45
2019-01-23T11:08:30.598Z,40.85
2019-01-23T11:09:34.906Z,41.85
2019-01-23T11:10:39.262Z,42.62
2019-01-23T11:11:43.532Z,44.35
2019-01-23T11:12:47.899Z,42.15
2019-01-23T11:13:52.243Z,44.20
2019-01-23T11:14:56.518Z,41.92
2019-01-23T11:16:00.798Z,40.28
2019-01-23T11:17:05.238Z,42.45
2019-01-23T11:18:09.678Z,42.33
2019-01-23T11:19:14.025Z,43.52
2019-01-23T11:20:18.870Z,40.43
2019-01-23T11:21:23.303Z,41.45
2019-01-23T11:22:27.576Z,40.03
2019-01-23T11:23:31.930Z,42.90
2019-01-23T11:24:36.204Z,40.00
2019-01-23T11:25:40.499Z,42.65
2019-01-23T11:26:44.877Z,40.73
2019-01-23T11:27:49.308Z,40.58
2019-01-23T11:28:56.441Z,40.25
2019-01-23T11:30:02.170Z,40.20
2019-01-23T11:31:06.598Z,43.33
2019-01-23T11:32:10.870Z,40.95
2019-01-23T11:33:15.254Z,40.28
2019-01-23T11:34:19.569Z,39.53
2019-01-23T11:35:24.234Z,40.12
2019-01-23T11:36:28.494Z,39.67
2019-01-23T11:37:32.779Z,38.60
2019-01-23T11:38:37.121Z,39.45
2019-01-23T11:39:41.387Z,39.67
2019-01-23T11:40:45.745Z,40.78
2019-01-23T11:41:50.094Z,39.15
2019-01-23T11:42:54.437Z,38.83
2019-01-23T11:43:58.720Z,38.92
2019-01-23T11:45:03.158Z,36.75
2019-01-23T11:46:07.536Z,37.67
2019-01-23T11:47:11.862Z,37.98
2019-01-23T11:48:16.144Z,38.73
2019-01-23T11:49:20.402Z,39.05
2019-01-23T11:50:24.904Z,36.15
2019-01-23T11:51:29.227Z,39.20
2019-01-23T11:52:33.572Z,37.95
2019-01-23T11:53:37.904Z,38.15
2019-01-23T11:54:42.172Z,39.18
2019-01-23T11:55:47.486Z,39.48
2019-01-23T11:56:51.874Z,39.38
2019-01-23T11:57:56.221Z,41.37
2019-01-23T11:59:00.494Z,39.63
2019-01-23T12:00:07.009Z,40.40
2019-01-23T12:01:11.415Z,39.58
2019-01-23T12:02:15.766Z,38.60
2019-01-23T12:03:21.019Z,40.98
2019-01-23T12:04:25.476Z,39.83
2019-01-23T12:05:29.739Z,41.37
2019-01-23T12:06:34.081Z,41.08
2019-01-23T12:07:38.578Z,41.18
2019-01-23T12:08:42.926Z,39.95
2019-01-23T12:09:47.286Z,40.63
2019-01-23T12:10:51.618Z,41.00
2019-01-23T12:11:55.986Z,41.55
2019-01-23T12:13:00.264Z,41.13
2019-01-23T12:14:05.082Z,40.63
2019-01-23T12:15:10.598Z,39.75
2019-01-23T12:16:14.926Z,40.08
2019-01-23T12:17:19.210Z,41.15
2019-01-23T12:18:23.497Z,38.90
2019-01-23T12:19:27.850Z,38.92
2019-01-23T12:20:32.198Z,40.15
2019-01-23T12:21:36.506Z,40.03
2019-01-23T12:22:40.797Z,40.48
2019-01-23T12:23:45.139Z,40.05
2019-01-23T12:24:49.492Z,38.73
2019-01-23T12:25:53.750Z,41.25
2019-01-23T12:26:58.082Z,39.80
2019-01-23T12:28:02.370Z,39.42
2019-01-23T12:29:06.626Z,39.83
2019-01-23T12:30:17.858Z,41.02
2019-01-23T12:31:22.200Z,40.98
2019-01-23T12:32:26.486Z,38.25
2019-01-23T12:33:30.767Z,40.03
2019-01-23T12:34:35.022Z,39.33
2019-01-23T12:35:39.305Z,40.67
2019-01-23T12:36:44.348Z,41.08
2019-01-23T12:37:48.723Z,40.30
2019-01-23T12:38:52.990Z,41.85
2019-01-23T12:39:57.329Z,40.78
2019-01-23T12:41:01.609Z,41.00
2019-01-23T12:42:06.030Z,40.20
2019-01-23T12:43:10.307Z,41.37
2019-01-23T12:44:14.733Z,40.55
2019-01-23T12:45:21.243Z,40.48
2019-01-23T12:46:25.524Z,42.03
2019-01-23T12:47:29.805Z,41.63
2019-01-23T12:48:34.078Z,37.80
2019-01-23T12:49:38.426Z,38.55
2019-01-23T12:50:42.706Z,39.75
2019-01-23T12:51:47.051Z,40.10
2019-01-23T12:52:51.594Z,41.60
2019-01-23T12:53:55.939Z,39.13
2019-01-23T12:55:00.255Z,40.33
2019-01-23T12:56:04.840Z,40.88
2019-01-23T12:57:09.101Z,38.88
2019-01-23T12:58:13.394Z,40.92
2019-01-23T12:59:17.662Z,39.27
2019-01-23T13:00:26.954Z,40.43
2019-01-23T13:01:31.236Z,41.70
2019-01-23T13:02:35.534Z,41.13
2019-01-23T13:03:39.810Z,39.78
2019-01-23T13:04:44.166Z,38.88
2019-01-23T13:05:48.517Z,41.83
2019-01-23T13:06:52.862Z,38.95
2019-01-23T13:07:57.224Z,38.88
2019-01-23T13:09:01.487Z,40.95
2019-01-23T13:10:08.379Z,40.55
2019-01-23T13:11:12.820Z,38.90
2019-01-23T13:12:17.165Z,40.15
2019-01-23T13:13:21.519Z,40.25
2019-01-23T13:14:25.790Z,39.58
2019-01-23T13:15:30.218Z,39.40
2019-01-23T13:16:34.554Z,38.13
2019-01-23T13:17:38.827Z,38.38
2019-01-23T13:18:43.102Z,40.15
2019-01-23T13:19:47.365Z,38.48
2019-01-23T13:20:51.650Z,38.23
2019-01-23T13:21:55.991Z,39.92
2019-01-23T13:23:00.359Z,39.75
2019-01-23T13:24:04.690Z,39.80
2019-01-23T13:25:11.818Z,42.13
2019-01-23T13:26:16.158Z,41.55
2019-01-23T13:27:20.425Z,40.30
2019-01-23T13:28:24.715Z,39.18
2019-01-23T13:29:28.998Z,38.90
2019-01-23T13:30:33.345Z,40.10
2019-01-23T13:31:37.617Z,41.70
2019-01-23T13:32:41.887Z,40.25
2019-01-23T13:33:46.257Z,41.70
2019-01-23T13:34:50.919Z,40.92
2019-01-23T13:35:55.249Z,40.60
2019-01-23T13:36:59.614Z,41.08
2019-01-23T13:38:05.119Z,42.55
2019-01-23T13:39:13.558Z,41.53
2019-01-23T13:40:29.371Z,40.60
2019-01-23T13:41:33.689Z,40.20
2019-01-23T13:42:37.946Z,39.90
2019-01-23T13:43:42.221Z,41.25
2019-01-23T13:44:46.498Z,42.25
2019-01-23T13:45:50.765Z,43.20
2019-01-23T13:46:55.113Z,41.58
2019-01-23T13:47:59.454Z,41.90
2019-01-23T13:49:03.850Z,41.88
2019-01-23T13:50:08.924Z,41.28
2019-01-23T13:51:13.262Z,40.63
2019-01-23T13:52:17.537Z,40.70
2019-01-23T13:53:21.889Z,43.63
2019-01-23T13:54:26.165Z,41.48
2019-01-23T13:55:30.510Z,43.15
2019-01-23T13:56:34.806Z,40.98
2019-01-23T13:57:39.078Z,41.25
2019-01-23T13:58:43.371Z,42.05